Alborn, Minnesota
Current Conditions -  °F | °C
As of 12:36 PM on Sunday 23 Nov 2014 (Local Time) from KCOQ Reporting Station
Haze Haze  
Wind Chill: 35°   Ceiling: 10000
Heat Index: 39°   Visibility: 4mi
Dew Point: 37°   Wind: 6mph
Humidity: 93%   Direction: 220°SW
Pressure: 29.39"   Gusts: NA
Location:  46.97°N, 92.58°W
Report Text: KCOQ 231836Z AUTO 22005KT 4SM BR SCT008 OVC100 04/03 A2939 RMK AO2
Loading
Personal Weather Stations






























Interactive Weather Map New forecast layout! Learn more

10-Day Weather Forecast

Advertisements
Track Severe Weather on mobile